createdAt,value
2019-02-20T00:00:27.405Z,6.13
2019-02-20T00:02:53.765Z,5.77
2019-02-20T00:05:24.932Z,7.17
2019-02-20T00:07:51.391Z,5.80
2019-02-20T00:10:17.850Z,6.00
2019-02-20T00:12:44.219Z,6.80
2019-02-20T00:15:11.442Z,6.07
2019-02-20T00:17:40.629Z,6.77
2019-02-20T00:20:07.094Z,6.73
2019-02-20T00:22:40.059Z,6.43
2019-02-20T00:25:01.871Z,6.10
2019-02-20T00:27:44.406Z,6.70
2019-02-20T00:30:06.591Z,5.60
2019-02-20T00:32:37.550Z,6.03
2019-02-20T00:35:04.848Z,6.43
2019-02-20T00:37:31.334Z,4.97
2019-02-20T00:40:00.273Z,5.70
2019-02-20T00:42:31.647Z,6.03
2019-02-20T00:45:02.099Z,5.53
2019-02-20T00:47:30.451Z,4.67
2019-02-20T00:49:56.786Z,4.83
2019-02-20T00:52:26.323Z,4.87
2019-02-20T00:54:52.593Z,5.60
2019-02-20T00:57:20.851Z,5.90
2019-02-20T00:59:49.537Z,5.63
2019-02-20T01:02:15.838Z,5.67
2019-02-20T01:04:42.262Z,5.30
2019-02-20T01:07:08.561Z,5.03
2019-02-20T01:09:36.736Z,4.47
2019-02-20T01:12:03.831Z,4.83
2019-02-20T01:14:30.093Z,4.40
2019-02-20T01:16:56.430Z,5.13
2019-02-20T01:19:22.757Z,5.27
2019-02-20T01:21:49.468Z,5.33
2019-02-20T01:24:19.177Z,5.53
2019-02-20T01:26:47.975Z,6.63
2019-02-20T01:29:14.329Z,6.67
2019-02-20T01:31:40.589Z,5.43
2019-02-20T01:34:06.828Z,5.87
2019-02-20T01:36:33.031Z,5.30
2019-02-20T01:38:59.294Z,4.60
2019-02-20T01:41:25.692Z,4.80
2019-02-20T01:43:51.929Z,5.60
2019-02-20T01:46:18.189Z,5.80
2019-02-20T01:48:44.429Z,6.13
2019-02-20T01:51:13.766Z,6.50
2019-02-20T01:53:40.058Z,5.83
2019-02-20T01:56:06.295Z,5.40
2019-02-20T01:58:32.712Z,5.87
2019-02-20T02:00:59.041Z,5.23
2019-02-20T02:03:28.119Z,6.33
2019-02-20T02:05:54.594Z,5.90
2019-02-20T02:08:20.942Z,6.60
2019-02-20T02:10:47.337Z,5.83
2019-02-20T02:13:16.432Z,6.40
2019-02-20T02:15:42.884Z,5.20
2019-02-20T02:18:09.273Z,5.60
2019-02-20T02:20:35.479Z,5.20
2019-02-20T02:23:01.923Z,5.00
2019-02-20T02:25:28.219Z,5.23
2019-02-20T02:27:54.674Z,4.90
2019-02-20T02:30:20.954Z,4.90
2019-02-20T02:32:47.230Z,4.87
2019-02-20T02:35:13.554Z,4.80
2019-02-20T02:37:39.947Z,6.50
2019-02-20T02:40:07.370Z,7.30
2019-02-20T02:42:33.704Z,6.20
2019-02-20T02:45:00.426Z,7.43
2019-02-20T02:47:27.001Z,8.10
2019-02-20T02:49:53.379Z,7.10
2019-02-20T02:52:19.728Z,6.80
2019-02-20T02:54:45.967Z,6.00
2019-02-20T02:57:12.132Z,7.00
2019-02-20T02:59:38.351Z,7.30
2019-02-20T03:02:04.762Z,8.40
2019-02-20T03:04:31.060Z,7.87
2019-02-20T03:06:57.412Z,6.80
2019-02-20T03:09:23.739Z,7.17
2019-02-20T03:11:50.009Z,6.63
2019-02-20T03:14:16.253Z,7.23
2019-02-20T03:16:42.508Z,6.80
2019-02-20T03:19:08.722Z,6.43
2019-02-20T03:21:35.085Z,6.97
2019-02-20T03:24:01.394Z,6.87
2019-02-20T03:26:27.641Z,7.20
2019-02-20T03:28:53.781Z,6.87
2019-02-20T03:31:20.136Z,6.37
2019-02-20T03:33:46.491Z,7.90
2019-02-20T03:36:12.754Z,7.10
2019-02-20T03:38:39.077Z,6.93
2019-02-20T03:41:05.416Z,6.20
2019-02-20T03:43:31.704Z,5.63
2019-02-20T03:45:57.954Z,5.20
2019-02-20T03:48:24.262Z,6.03
2019-02-20T03:50:50.471Z,6.00
2019-02-20T03:53:16.882Z,7.40
2019-02-20T03:55:43.224Z,6.73
2019-02-20T03:58:09.540Z,6.67
2019-02-20T04:00:35.666Z,7.03
2019-02-20T04:03:02.045Z,7.17
2019-02-20T04:05:28.319Z,8.53
2019-02-20T04:07:54.546Z,6.77
2019-02-20T04:10:20.771Z,6.23
2019-02-20T04:12:46.953Z,8.47
2019-02-20T04:15:13.222Z,7.00
2019-02-20T04:17:39.478Z,7.00
2019-02-20T04:20:06.406Z,7.63
2019-02-20T04:22:32.627Z,7.63
2019-02-20T04:24:58.843Z,7.40
2019-02-20T04:27:25.242Z,6.70
2019-02-20T04:29:51.483Z,6.30
2019-02-20T04:32:17.830Z,7.20
2019-02-20T04:34:44.001Z,6.93
2019-02-20T04:37:10.230Z,8.00
2019-02-20T04:39:36.684Z,10.13
2019-02-20T04:42:03.014Z,15.10
2019-02-20T04:44:29.967Z,12.67
2019-02-20T04:46:56.189Z,13.67
2019-02-20T04:49:22.424Z,10.00
2019-02-20T04:51:48.781Z,12.73
2019-02-20T04:54:15.012Z,9.77
2019-02-20T04:56:41.269Z,8.87
2019-02-20T04:59:07.543Z,8.57
2019-02-20T05:01:33.764Z,14.90
2019-02-20T05:04:00.093Z,10.30
2019-02-20T05:06:26.470Z,14.30
2019-02-20T05:08:52.712Z,15.73
2019-02-20T05:11:18.980Z,14.00
2019-02-20T05:13:45.363Z,13.20
2019-02-20T05:16:11.709Z,11.73
2019-02-20T05:18:37.929Z,11.20
2019-02-20T05:21:04.222Z,11.60
2019-02-20T05:23:30.622Z,12.13
2019-02-20T05:25:56.955Z,10.77
2019-02-20T05:28:23.185Z,10.50
2019-02-20T05:30:49.424Z,10.87
2019-02-20T05:33:15.802Z,9.77
2019-02-20T05:35:42.019Z,16.57
2019-02-20T05:38:08.426Z,13.27
2019-02-20T05:40:35.006Z,14.13
2019-02-20T05:43:01.515Z,13.23
2019-02-20T05:45:30.453Z,12.27
2019-02-20T05:47:56.743Z,11.97
2019-02-20T05:50:23.081Z,11.80
2019-02-20T05:52:49.327Z,11.00
2019-02-20T05:55:20.616Z,11.50
2019-02-20T05:57:49.544Z,10.53
2019-02-20T06:00:15.944Z,10.37
2019-02-20T06:02:42.214Z,10.83
2019-02-20T06:05:09.106Z,9.83
2019-02-20T06:07:42.325Z,10.47
2019-02-20T06:10:08.644Z,11.30
2019-02-20T06:12:34.859Z,9.67
2019-02-20T06:15:01.379Z,10.40
2019-02-20T06:17:27.588Z,10.83
2019-02-20T06:19:53.740Z,10.60
2019-02-20T06:22:20.016Z,9.90
2019-02-20T06:24:46.416Z,11.27
2019-02-20T06:27:12.719Z,10.87
2019-02-20T06:29:39.395Z,10.40
2019-02-20T06:32:05.749Z,10.87
2019-02-20T06:34:32.438Z,11.10
2019-02-20T06:36:58.728Z,9.67
2019-02-20T06:39:26.108Z,8.43
2019-02-20T06:41:52.658Z,9.33
2019-02-20T06:44:19.462Z,12.60
2019-02-20T06:46:45.823Z,12.23
2019-02-20T06:49:12.175Z,13.83
2019-02-20T06:51:40.562Z,13.87
2019-02-20T06:54:06.867Z,11.63
2019-02-20T06:56:36.818Z,13.43
2019-02-20T06:59:05.933Z,11.87
2019-02-20T07:01:36.081Z,11.27
2019-02-20T07:04:02.569Z,9.53
2019-02-20T07:06:42.164Z,23.47
2019-02-20T07:09:30.137Z,17.53
2019-02-20T07:12:16.836Z,16.13
2019-02-20T07:14:58.797Z,15.13
2019-02-20T07:17:37.706Z,15.63
2019-02-20T07:20:24.338Z,14.10
2019-02-20T07:23:00.173Z,12.57
2019-02-20T07:25:51.711Z,17.70
2019-02-20T07:28:28.262Z,12.10
2019-02-20T07:30:54.526Z,13.10
2019-02-20T07:33:23.581Z,11.07
2019-02-20T07:35:49.815Z,11.07
2019-02-20T07:38:15.967Z,9.53
2019-02-20T07:40:44.295Z,11.00
2019-02-20T07:43:10.650Z,10.47
2019-02-20T07:45:36.871Z,15.70
2019-02-20T07:48:05.104Z,14.63
2019-02-20T07:50:34.427Z,13.03
2019-02-20T07:53:04.432Z,12.70
2019-02-20T07:55:35.355Z,10.17
2019-02-20T07:58:04.156Z,9.27
2019-02-20T08:00:30.373Z,9.70
2019-02-20T08:02:56.872Z,9.23
2019-02-20T08:05:25.583Z,10.67
2019-02-20T08:07:54.723Z,10.70
2019-02-20T08:10:21.629Z,10.17
2019-02-20T08:12:47.891Z,10.40
2019-02-20T08:15:14.154Z,9.93
2019-02-20T08:17:50.339Z,8.50
2019-02-20T08:20:17.004Z,13.77
2019-02-20T08:22:43.397Z,13.40
2019-02-20T08:25:12.533Z,12.07
2019-02-20T08:27:39.100Z,13.63
2019-02-20T08:30:08.971Z,13.57
2019-02-20T08:32:39.514Z,11.73
2019-02-20T08:35:10.352Z,11.00
2019-02-20T08:37:37.074Z,11.87
2019-02-20T08:40:07.662Z,11.97
2019-02-20T08:42:33.912Z,11.27
2019-02-20T08:45:00.456Z,9.47
2019-02-20T08:47:26.723Z,8.97
2019-02-20T08:49:54.472Z,8.63
2019-02-20T08:52:24.475Z,9.03
2019-02-20T08:54:50.729Z,10.23
2019-02-20T08:57:17.314Z,9.53
2019-02-20T08:59:45.545Z,9.37
2019-02-20T09:02:15.758Z,8.73
2019-02-20T09:04:42.559Z,10.03
2019-02-20T09:07:12.240Z,11.63
2019-02-20T09:09:43.241Z,13.57
2019-02-20T09:12:09.693Z,11.53
2019-02-20T09:14:35.975Z,11.07
2019-02-20T09:17:02.365Z,9.53
2019-02-20T09:19:29.088Z,11.93
2019-02-20T09:21:55.823Z,11.93
2019-02-20T09:24:22.253Z,10.97
2019-02-20T09:26:48.634Z,9.10
2019-02-20T09:29:16.997Z,8.17
2019-02-20T09:31:43.339Z,7.30
2019-02-20T09:34:09.816Z,10.87
2019-02-20T09:36:36.068Z,11.17
2019-02-20T09:39:31.873Z,9.90
2019-02-20T09:41:58.499Z,13.65
2019-02-20T09:44:25.283Z,13.53
2019-02-20T09:46:51.631Z,12.63
2019-02-20T09:49:17.875Z,10.55
2019-02-20T09:51:46.755Z,7.97
2019-02-20T09:54:13.320Z,6.60
2019-02-20T09:56:39.555Z,6.67
2019-02-20T09:59:09.894Z,6.08
2019-02-20T10:01:40.072Z,7.37
2019-02-20T10:04:08.747Z,6.75
2019-02-20T10:06:34.978Z,9.75
2019-02-20T10:09:01.585Z,8.00
2019-02-20T10:11:27.840Z,6.20
2019-02-20T10:13:54.039Z,6.20
2019-02-20T10:16:21.104Z,5.20
2019-02-20T10:18:47.354Z,6.37
2019-02-20T10:21:17.273Z,6.92
2019-02-20T10:23:45.273Z,7.30
2019-02-20T10:26:11.591Z,7.05
2019-02-20T10:28:37.759Z,5.40
2019-02-20T10:31:04.227Z,6.67
2019-02-20T10:33:30.551Z,7.78
2019-02-20T10:35:57.415Z,8.43
2019-02-20T10:38:23.844Z,7.63
2019-02-20T10:40:50.085Z,7.90
2019-02-20T10:43:16.345Z,6.78
2019-02-20T10:45:42.675Z,5.85
2019-02-20T10:48:12.239Z,6.10
2019-02-20T10:50:38.504Z,6.62
2019-02-20T10:53:04.977Z,6.37
2019-02-20T10:55:31.490Z,7.83
2019-02-20T10:57:57.784Z,6.72
2019-02-20T11:00:29.765Z,7.50
2019-02-20T11:02:56.196Z,6.80
2019-02-20T11:05:25.019Z,6.17
2019-02-20T11:07:52.223Z,6.33
2019-02-20T11:10:25.014Z,5.50
2019-02-20T11:13:01.040Z,6.70
2019-02-20T11:15:27.643Z,6.30
2019-02-20T11:17:56.743Z,7.85
2019-02-20T11:20:23.280Z,7.07
2019-02-20T11:22:56.598Z,5.72
2019-02-20T11:25:26.709Z,5.65
2019-02-20T11:27:53.401Z,5.15
2019-02-20T11:30:23.211Z,7.78
2019-02-20T11:32:52.132Z,7.72
2019-02-20T11:35:25.103Z,6.80
2019-02-20T11:37:48.928Z,6.47
2019-02-20T11:40:15.682Z,6.70
2019-02-20T11:42:42.083Z,6.50
2019-02-20T11:45:15.214Z,6.72
2019-02-20T11:47:41.487Z,5.80
2019-02-20T11:50:09.135Z,4.35
2019-02-20T11:52:38.417Z,4.15
2019-02-20T11:55:05.824Z,4.87
2019-02-20T11:57:34.116Z,5.75
2019-02-20T12:00:00.629Z,4.70
2019-02-20T12:02:26.900Z,6.12
2019-02-20T12:04:53.205Z,5.45
2019-02-20T12:07:19.461Z,4.80
2019-02-20T12:09:45.981Z,4.67
2019-02-20T12:12:14.483Z,5.35
2019-02-20T12:14:40.740Z,4.78
2019-02-20T12:17:07.384Z,4.70
2019-02-20T12:19:33.715Z,5.05
2019-02-20T12:21:59.971Z,4.80
2019-02-20T12:24:26.501Z,4.03
2019-02-20T12:26:52.828Z,4.70
2019-02-20T12:29:19.339Z,5.00
2019-02-20T12:31:52.271Z,4.20
2019-02-20T12:34:14.019Z,4.80
2019-02-20T12:36:43.078Z,4.20
2019-02-20T12:39:15.951Z,6.92
2019-02-20T12:41:42.207Z,7.42
2019-02-20T12:44:08.738Z,10.58
2019-02-20T12:46:35.052Z,8.60
2019-02-20T12:49:01.304Z,9.05
2019-02-20T12:51:29.470Z,6.50
2019-02-20T12:53:55.641Z,6.67
2019-02-20T12:56:24.888Z,6.03
2019-02-20T12:58:51.314Z,5.47
2019-02-20T13:01:17.540Z,5.70
2019-02-20T13:03:43.851Z,5.17
2019-02-20T13:06:10.205Z,5.17
2019-02-20T13:08:36.517Z,10.08
2019-02-20T13:11:02.719Z,9.30
2019-02-20T13:13:28.881Z,9.15
2019-02-20T13:15:55.235Z,10.45
2019-02-20T13:18:21.568Z,10.20
2019-02-20T13:20:47.844Z,10.63
2019-02-20T13:23:14.102Z,9.93
2019-02-20T13:25:40.521Z,11.40
2019-02-20T13:28:08.905Z,12.95
2019-02-20T13:30:37.906Z,11.43
2019-02-20T13:33:04.205Z,12.03
2019-02-20T13:35:30.630Z,10.93
2019-02-20T13:37:56.974Z,11.28
2019-02-20T13:40:23.708Z,11.63
2019-02-20T13:42:50.565Z,12.07
2019-02-20T13:45:19.902Z,14.30
2019-02-20T13:47:46.324Z,12.15
2019-02-20T13:50:12.937Z,13.45
2019-02-20T13:52:40.246Z,12.40
2019-02-20T13:55:13.402Z,10.18
2019-02-20T13:57:45.012Z,9.53
2019-02-20T14:00:13.209Z,10.55
2019-02-20T14:02:39.646Z,10.93
2019-02-20T14:05:08.102Z,11.03
2019-02-20T14:07:34.483Z,11.60
2019-02-20T14:10:01.203Z,11.45
2019-02-20T14:12:27.501Z,10.53
2019-02-20T14:14:53.786Z,11.68
2019-02-20T14:17:26.500Z,11.65
2019-02-20T14:19:53.168Z,11.00
2019-02-20T14:22:20.798Z,12.80
2019-02-20T14:24:49.230Z,11.55
2019-02-20T14:27:17.226Z,10.03
2019-02-20T14:29:43.612Z,10.75
2019-02-20T14:32:09.865Z,10.13
2019-02-20T14:34:36.156Z,9.80
2019-02-20T14:37:02.976Z,8.83
2019-02-20T14:39:29.290Z,8.75
2019-02-20T14:41:55.540Z,8.30
2019-02-20T14:44:27.099Z,8.53
2019-02-20T14:46:56.244Z,10.10
2019-02-20T14:49:22.718Z,8.45
2019-02-20T14:51:51.559Z,7.58
2019-02-20T14:54:17.721Z,8.78
2019-02-20T14:56:43.926Z,7.78
2019-02-20T14:59:10.200Z,9.03
2019-02-20T15:01:36.639Z,10.03
2019-02-20T15:04:05.072Z,12.35
2019-02-20T15:06:40.787Z,11.80
2019-02-20T15:09:07.245Z,9.70
2019-02-20T15:11:33.635Z,8.48
2019-02-20T15:14:00.006Z,8.33
2019-02-20T15:16:26.327Z,7.40
2019-02-20T15:18:52.587Z,7.58
2019-02-20T15:21:18.996Z,7.80
2019-02-20T15:23:45.317Z,7.50
2019-02-20T15:26:11.692Z,8.23
2019-02-20T15:28:39.509Z,7.70
2019-02-20T15:31:06.478Z,8.35
2019-02-20T15:33:33.054Z,9.58
2019-02-20T15:36:00.049Z,9.58
2019-02-20T15:38:26.292Z,8.90
2019-02-20T15:40:52.646Z,8.85
2019-02-20T15:43:19.290Z,8.75
2019-02-20T15:45:45.631Z,7.80
2019-02-20T15:48:12.107Z,8.33
2019-02-20T15:50:38.374Z,7.95
2019-02-20T15:53:04.778Z,8.48
2019-02-20T15:55:31.119Z,8.25
2019-02-20T15:57:58.088Z,8.35
2019-02-20T16:00:25.932Z,9.63
2019-02-20T16:02:52.663Z,11.03
2019-02-20T16:05:22.973Z,9.75
2019-02-20T16:07:49.317Z,9.90
2019-02-20T16:10:15.913Z,9.63
2019-02-20T16:12:43.085Z,9.08
2019-02-20T16:15:11.904Z,9.70
2019-02-20T16:17:41.078Z,11.33
2019-02-20T16:20:11.452Z,10.85
2019-02-20T16:22:37.776Z,10.88
2019-02-20T16:25:07.894Z,10.80
2019-02-20T16:27:36.850Z,8.98
2019-02-20T16:30:05.897Z,8.55
2019-02-20T16:32:32.291Z,8.20
2019-02-20T16:34:58.513Z,7.80
2019-02-20T16:37:24.974Z,7.58
2019-02-20T16:39:51.813Z,8.50
2019-02-20T16:42:18.516Z,8.28
2019-02-20T16:44:47.381Z,9.70
2019-02-20T16:47:19.187Z,8.11
2019-02-20T16:49:48.026Z,8.53
2019-02-20T16:52:14.625Z,8.13
2019-02-20T16:54:40.861Z,7.87
2019-02-20T16:57:07.878Z,6.23
2019-02-20T16:59:37.807Z,6.83
2019-02-20T17:02:04.438Z,5.97
2019-02-20T17:04:31.121Z,5.77
2019-02-20T17:06:57.734Z,6.10
2019-02-20T17:09:24.361Z,6.73
2019-02-20T17:11:51.550Z,6.07
2019-02-20T17:14:18.151Z,6.47
2019-02-20T17:16:44.572Z,6.80
2019-02-20T17:19:11.354Z,7.43
2019-02-20T17:21:37.737Z,7.33
2019-02-20T17:24:04.695Z,7.47
2019-02-20T17:26:32.884Z,8.10
2019-02-20T17:28:59.418Z,7.67
2019-02-20T17:31:25.746Z,8.53
2019-02-20T17:33:52.560Z,7.33
2019-02-20T17:36:18.891Z,8.27
2019-02-20T17:38:45.256Z,7.27
2019-02-20T17:41:17.250Z,6.93
2019-02-20T17:43:50.159Z,6.17
2019-02-20T17:46:16.524Z,6.83
2019-02-20T17:48:47.456Z,7.13
2019-02-20T17:51:13.666Z,6.97
2019-02-20T17:53:40.005Z,6.60
2019-02-20T17:56:06.509Z,6.97
2019-02-20T17:58:32.951Z,7.53
2019-02-20T18:01:00.636Z,7.13
2019-02-20T18:03:27.092Z,7.23
2019-02-20T18:05:53.625Z,7.30
2019-02-20T18:08:19.829Z,7.80
2019-02-20T18:10:52.315Z,7.43
2019-02-20T18:13:19.719Z,6.67
2019-02-20T18:15:48.606Z,6.47
2019-02-20T18:18:15.968Z,6.97
2019-02-20T18:20:43.436Z,6.33
2019-02-20T18:23:12.319Z,8.77
2019-02-20T18:25:38.829Z,9.03
2019-02-20T18:28:06.451Z,9.10
2019-02-20T18:30:32.971Z,8.43
2019-02-20T18:33:01.270Z,8.87
2019-02-20T18:35:32.190Z,9.23
2019-02-20T18:37:58.435Z,7.83
2019-02-20T18:40:24.892Z,8.53
2019-02-20T18:42:51.326Z,8.07
2019-02-20T18:45:17.811Z,6.70
2019-02-20T18:47:44.253Z,6.87
2019-02-20T18:50:12.162Z,7.17
2019-02-20T18:52:38.380Z,6.40
2019-02-20T18:55:07.448Z,7.00
2019-02-20T18:57:33.771Z,6.60
2019-02-20T19:00:00.378Z,6.33
2019-02-20T19:02:26.663Z,6.57
2019-02-20T19:04:52.976Z,6.03
2019-02-20T19:07:19.429Z,5.33
2019-02-20T19:09:45.798Z,5.43
2019-02-20T19:12:16.009Z,5.40
2019-02-20T19:14:55.278Z,5.37
2019-02-20T19:17:30.912Z,4.83
2019-02-20T19:20:07.075Z,5.10
2019-02-20T19:22:54.133Z,4.50
2019-02-20T19:25:43.743Z,4.10
2019-02-20T19:28:31.842Z,4.70
2019-02-20T19:31:22.858Z,4.73
2019-02-20T19:34:04.970Z,4.30
2019-02-20T19:36:37.892Z,4.20
2019-02-20T19:39:29.180Z,4.17
2019-02-20T19:42:02.198Z,4.00
2019-02-20T19:44:38.393Z,4.47
2019-02-20T19:47:14.496Z,4.30
2019-02-20T19:50:11.689Z,4.20
2019-02-20T19:52:57.098Z,5.17
2019-02-20T19:55:27.211Z,4.60
2019-02-20T19:58:03.341Z,4.50
2019-02-20T20:00:39.688Z,4.80
2019-02-20T20:03:37.141Z,5.30
2019-02-20T20:06:38.808Z,4.90
2019-02-20T20:09:14.584Z,5.13
2019-02-20T20:12:16.699Z,5.30
2019-02-20T20:14:52.422Z,5.70
2019-02-20T20:17:39.064Z,5.17
2019-02-20T20:20:17.966Z,4.60
2019-02-20T20:22:56.874Z,5.90
2019-02-20T20:25:35.775Z,5.57
2019-02-20T20:28:20.902Z,5.10
2019-02-20T20:31:01.653Z,4.73
2019-02-20T20:33:37.602Z,4.47
2019-02-20T20:36:29.098Z,5.33
2019-02-20T20:39:37.329Z,4.42
2019-02-20T20:42:24.036Z,4.27
2019-02-20T20:44:56.922Z,4.90
2019-02-20T20:47:29.819Z,5.00
2019-02-20T20:50:16.608Z,5.03
2019-02-20T20:53:02.326Z,5.00
2019-02-20T20:55:41.760Z,5.57
2019-02-20T20:58:33.229Z,6.83
2019-02-20T21:01:33.311Z,6.60
2019-02-20T21:04:29.775Z,6.60
2019-02-20T21:07:27.514Z,6.47
2019-02-20T21:10:12.469Z,5.97
2019-02-20T21:12:57.751Z,6.43
2019-02-20T21:15:39.401Z,5.80
2019-02-20T21:18:33.456Z,5.90
2019-02-20T21:21:17.498Z,6.00
2019-02-20T21:23:56.382Z,5.70
2019-02-20T21:26:35.907Z,5.73
2019-02-20T21:29:28.714Z,5.70
2019-02-20T21:32:22.987Z,5.30
2019-02-20T21:35:05.076Z,5.47
2019-02-20T21:37:47.255Z,4.80
2019-02-20T21:40:52.240Z,5.70
2019-02-20T21:43:39.163Z,5.63
2019-02-20T21:46:35.473Z,6.90
2019-02-20T21:49:23.745Z,6.83
2019-02-20T21:51:53.780Z,6.30
2019-02-20T21:54:23.831Z,8.80
2019-02-20T21:56:57.057Z,9.30
2019-02-20T21:59:45.472Z,8.30
2019-02-20T22:02:18.532Z,7.93
2019-02-20T22:04:54.736Z,8.10
2019-02-20T22:07:33.619Z,7.63
2019-02-20T22:10:18.682Z,7.93
2019-02-20T22:13:08.373Z,7.30
2019-02-20T22:15:50.455Z,8.93
2019-02-20T22:18:41.973Z,10.50
2019-02-20T22:21:33.306Z,10.77
2019-02-20T22:24:03.492Z,10.80
2019-02-20T22:27:08.804Z,11.13
2019-02-20T22:29:58.732Z,9.73
2019-02-20T22:32:38.950Z,11.17
2019-02-20T22:35:26.651Z,11.77
2019-02-20T22:38:08.509Z,10.40
2019-02-20T22:41:06.127Z,9.67
2019-02-20T22:44:11.443Z,9.40
2019-02-20T22:46:50.545Z,8.70
2019-02-20T22:49:40.374Z,8.30
2019-02-20T22:52:10.454Z,8.30
2019-02-20T22:54:52.253Z,8.80
2019-02-20T22:57:28.121Z,8.03
2019-02-20T23:00:21.895Z,7.27
2019-02-20T23:02:51.978Z,8.00
2019-02-20T23:05:27.708Z,8.17
2019-02-20T23:08:22.003Z,7.33
2019-02-20T23:11:17.581Z,7.40
2019-02-20T23:13:50.610Z,7.90
2019-02-20T23:16:16.818Z,7.63
2019-02-20T23:18:43.082Z,6.97
2019-02-20T23:21:09.212Z,6.50
2019-02-20T23:23:35.569Z,6.50
2019-02-20T23:26:01.949Z,6.53
2019-02-20T23:28:28.222Z,6.63
2019-02-20T23:30:54.481Z,7.57
2019-02-20T23:33:20.781Z,7.20
2019-02-20T23:35:47.044Z,7.57
2019-02-20T23:38:13.288Z,7.13
2019-02-20T23:40:39.543Z,6.93
2019-02-20T23:43:05.654Z,7.87
2019-02-20T23:45:32.130Z,7.90
2019-02-20T23:47:58.356Z,9.13
2019-02-20T23:50:24.531Z,9.63
2019-02-20T23:52:50.826Z,8.50
2019-02-20T23:55:17.045Z,7.60
2019-02-20T23:57:43.274Z,10.23
